Time;durP1;ratioP1;P1;durP2;ratioP2;P2;SDS_P1;SDS_P2;PMS_P1;PMS_P2;Temp;Humidity;BMP_temperature;BMP_pressure;BME280_temperature;BME280_humidity;BME280_pressure;Samples;Min_cycle;Max_cycle;Signal;HPM_P1;HPM_P2
2022/04/13 00:06:41;;;;;;;52.70;26.40;;;;;;;3.75;53.60;99105.13;433615;1268;112477;-45
2022/04/13 00:16:48;;;;;;;36.30;19.80;;;;;;;3.48;54.07;99089.47;433671;1271;109160;-41
2022/04/13 00:37:02;;;;;;;33.80;18.40;;;;;;;3.40;54.84;99077.48;433587;1268;112423;-43
2022/04/13 00:47:10;;;;;;;41.20;20.90;;;;;;;3.40;55.08;99091.58;433463;1269;107286;-43
2022/04/13 00:57:20;;;;;;;43.00;21.00;;;;;;;3.28;55.23;99094.03;432717;1270;98029;-44
2022/04/13 01:07:27;;;;;;;41.50;20.70;;;;;;;3.13;55.52;99091.73;433745;1269;112537;-42
2022/04/13 01:17:38;;;;;;;38.50;21.50;;;;;;;2.93;55.99;99101.05;434086;1258;108853;-39
2022/04/13 01:27:45;;;;;;;28.50;16.40;;;;;;;2.65;56.57;99096.95;432514;1270;97967;-43
2022/04/13 01:37:52;;;;;;;30.00;15.60;;;;;;;2.44;56.70;99088.85;432421;1270;112432;-44
2022/04/13 01:47:59;;;;;;;45.00;21.60;;;;;;;2.31;57.42;99097.31;432423;1270;108804;-44
2022/04/13 01:58:06;;;;;;;45.60;21.10;;;;;;;2.13;57.68;99111.48;432440;1270;98828;-44
2022/04/13 02:08:13;;;;;;;38.70;20.10;;;;;;;1.86;58.34;99106.60;432557;1270;109652;-42
2022/04/13 02:18:21;;;;;;;43.20;21.20;;;;;;;1.59;58.90;99116.02;432498;1270;98856;-41
2022/04/13 02:28:28;;;;;;;40.90;21.00;;;;;;;1.28;59.14;99114.60;432664;1270;112590;-42
2022/04/13 02:38:35;;;;;;;41.00;21.80;;;;;;;0.98;59.21;99117.48;432624;1270;108910;-43
2022/04/13 02:48:42;;;;;;;38.80;20.90;;;;;;;0.80;59.68;99113.41;432507;1270;99252;-45
2022/04/13 02:58:49;;;;;;;30.70;18.00;;;;;;;0.73;60.28;99114.65;432570;1270;108814;-47
2022/04/13 03:08:57;;;;;;;36.70;19.70;;;;;;;0.75;60.64;99112.00;432683;1270;101587;-42
2022/04/13 03:19:04;;;;;;;45.50;23.50;;;;;;;0.73;61.18;99100.30;432464;1270;112413;-42
2022/04/13 03:29:11;;;;;;;49.80;23.30;;;;;;;0.64;61.56;99099.95;432540;1269;108841;-44
2022/04/13 03:39:18;;;;;;;42.40;22.20;;;;;;;0.37;61.88;99100.70;432600;1270;99247;-46
2022/04/13 03:49:25;;;;;;;47.00;25.00;;;;;;;0.17;62.25;99098.90;432559;1270;108854;-42
2022/04/13 03:59:32;;;;;;;45.80;23.30;;;;;;;0.10;62.64;99111.44;432611;1270;98889;-44
2022/04/13 04:09:39;;;;;;;40.20;22.20;;;;;;;0.10;62.61;99120.25;432527;1270;112569;-43
2022/04/13 04:19:47;;;;;;;36.20;19.90;;;;;;;0.20;62.75;99125.85;432635;1270;108739;-41
2022/04/13 04:29:54;;;;;;;39.70;20.70;;;;;;;0.53;63.17;99126.91;432626;1270;98435;-41
2022/04/13 04:40:01;;;;;;;52.50;24.90;;;;;;;1.06;63.59;99127.61;432499;1270;108704;-44
2022/04/13 04:50:10;;;;;;;49.40;25.50;;;;;;;1.58;63.54;99131.70;432692;1270;98001;-42
2022/04/13 05:00:20;;;;;;;46.00;21.90;;;;;;;2.52;63.54;99144.36;432484;1270;113239;-42
2022/04/13 05:10:27;;;;;;;36.50;20.30;;;;;;;4.46;62.91;99134.10;432527;1270;108810;-43
2022/04/13 05:20:34;;;;;;;29.10;18.20;;;;;;;6.37;61.58;99133.98;432591;1269;98852;-43
2022/04/13 05:30:42;;;;;;;64.00;25.40;;;;;;;7.70;59.91;99140.27;432440;1270;109769;-42
2022/04/13 05:40:51;;;;;;;78.20;28.10;;;;;;;8.62;58.04;99148.64;432485;1270;98461;-45
2022/04/13 06:01:10;;;;;;;31.10;15.40;;;;;;;9.93;55.40;99165.05;432567;1270;108859;-45
2022/04/13 06:11:17;;;;;;;33.10;15.30;;;;;;;10.60;54.09;99169.73;432605;1270;99253;-43
2022/04/13 06:21:24;;;;;;;25.70;14.50;;;;;;;11.27;52.63;99178.98;432584;1270;109211;-42
2022/04/13 06:31:31;;;;;;;19.50;12.30;;;;;;;11.32;50.74;99178.85;432510;1270;98892;-46
2022/04/13 06:41:39;;;;;;;18.00;9.40;;;;;;;11.53;49.71;99179.13;432533;1270;112430;-46
2022/04/13 06:51:46;;;;;;;17.30;9.20;;;;;;;12.00;48.50;99185.52;432580;1270;108231;-43
2022/04/13 07:01:53;;;;;;;18.40;8.60;;;;;;;12.49;46.97;99184.41;432625;1270;99282;-45
2022/04/13 07:12:01;;;;;;;18.40;7.60;;;;;;;13.14;45.43;99185.20;432584;1270;108948;-44
2022/04/13 07:22:08;;;;;;;7.20;4.80;;;;;;;13.48;44.26;99184.46;432591;1270;99150;-41
2022/04/13 07:32:20;;;;;;;10.20;4.30;;;;;;;13.53;41.85;99191.67;432670;1270;112474;-44
2022/04/13 07:42:28;;;;;;;8.30;4.70;;;;;;;13.73;42.05;99195.48;432624;1270;107619;-41
2022/04/13 07:52:35;;;;;;;6.10;4.00;;;;;;;13.71;40.24;99196.22;432481;1270;99273;-46
2022/04/13 08:02:43;;;;;;;10.60;5.00;;;;;;;13.68;40.36;99196.48;432764;1270;108889;-45
2022/04/13 08:12:50;;;;;;;10.50;5.20;;;;;;;13.88;39.23;99195.45;432586;1270;99299;-45
2022/04/13 08:33:03;;;;;;;7.50;5.00;;;;;;;14.40;37.83;99189.10;432502;1271;108085;-45
2022/04/13 08:43:09;;;;;;;9.00;5.40;;;;;;;14.61;37.62;99181.10;432564;1273;98075;-43
2022/04/13 08:53:22;;;;;;;7.30;5.20;;;;;;;14.69;37.21;99171.13;432585;1271;107662;-44
2022/04/13 09:03:29;;;;;;;9.40;5.60;;;;;;;14.79;36.44;99171.39;432594;1271;99260;-42
2022/04/13 09:13:38;;;;;;;19.10;6.20;;;;;;;15.16;36.11;99171.32;432314;1271;418426;-45
2022/04/13 09:23:44;;;;;;;;;;;;;;;15.49;36.49;99168.27;432745;1270;108852;-41
2022/04/13 09:33:51;;;;;;;6.90;4.20;;;;;;;15.41;35.39;99172.49;432719;1270;99267;-40
2022/04/13 09:44:00;;;;;;;7.80;4.10;;;;;;;15.45;35.27;99161.73;432698;1270;108989;-43
2022/04/13 09:54:13;;;;;;;5.50;4.50;;;;;;;15.64;35.39;99155.58;432714;1270;98086;-42
2022/04/13 10:04:23;;;;;;;7.10;4.60;;;;;;;15.69;34.50;99151.31;432634;1270;112417;-43
2022/04/13 10:14:31;;;;;;;6.00;4.30;;;;;;;15.75;33.87;99147.88;432601;1270;108672;-41
2022/04/13 10:24:40;;;;;;;8.60;4.00;;;;;;;16.10;34.40;99151.94;432777;1271;99375;-42
2022/04/13 10:34:55;;;;;;;8.90;4.40;;;;;;;16.53;34.19;99151.72;432511;1271;108862;-46
2022/04/13 10:45:07;;;;;;;7.80;4.10;;;;;;;16.69;33.30;99150.90;432677;1271;98075;-44
2022/04/13 10:55:22;;;;;;;8.20;4.60;;;;;;;16.59;31.96;99148.80;432771;1271;112494;-42
2022/04/13 11:05:31;;;;;;;8.40;4.10;;;;;;;16.26;32.25;99148.23;432631;1271;109056;-41
2022/04/13 11:15:39;;;;;;;5.90;4.50;;;;;;;16.41;32.10;99121.36;432468;1271;99245;-43
2022/04/13 11:25:48;;;;;;;9.00;5.20;;;;;;;16.53;32.35;99103.14;432580;1271;108743;-47
2022/04/13 11:35:56;;;;;;;9.40;5.00;;;;;;;16.99;31.44;99098.11;432598;1271;98072;-45
2022/04/13 11:46:04;;;;;;;11.10;5.60;;;;;;;17.36;32.12;99103.50;432616;1271;112429;-48
2022/04/13 11:56:31;;;;;;;6.90;4.70;;;;;;;17.58;31.08;99099.08;432597;1271;108657;-45
2022/04/13 12:06:40;;;;;;;9.20;4.60;;;;;;;17.46;30.84;99098.44;432684;1271;98031;-46
2022/04/13 12:16:47;;;;;;;7.60;5.90;;;;;;;17.51;30.97;99092.16;432596;1271;109458;-48
2022/04/13 12:26:56;;;;;;;8.90;5.10;;;;;;;17.21;30.77;99083.66;432586;1271;98541;-44
2022/04/13 12:37:05;;;;;;;8.10;6.10;;;;;;;17.18;32.28;99076.54;432533;1271;110987;-46
2022/04/13 13:07:29;;;;;;;10.20;6.10;;;;;;;17.19;31.98;99045.49;432540;1271;107615;-45
2022/04/13 13:27:49;;;;;;;10.80;6.10;;;;;;;16.96;32.04;99042.80;432761;1270;111394;-45
2022/04/13 13:38:05;;;;;;;13.00;5.80;;;;;;;16.86;32.22;99040.41;432485;1270;108976;-41
2022/04/13 13:48:14;;;;;;;7.90;5.80;;;;;;;16.68;32.56;99048.48;432548;1270;99251;-41
2022/04/13 13:58:21;;;;;;;9.70;5.70;;;;;;;16.55;32.66;99043.31;432418;1270;108841;-42
2022/04/13 14:08:29;;;;;;;7.10;4.90;;;;;;;16.28;32.61;99040.84;432629;1270;98934;-40
2022/04/13 14:18:41;;;;;;;9.60;5.90;;;;;;;16.16;33.10;99034.83;432583;1270;112352;-41
2022/04/13 14:28:50;;;;;;;9.10;5.50;;;;;;;16.06;33.45;99028.46;432621;1270;108924;-47
2022/04/13 14:38:57;;;;;;;13.30;7.60;;;;;;;15.88;33.37;99028.53;432539;1270;99275;-41
2022/04/13 14:49:02;;;;;;;12.70;7.30;;;;;;;15.78;33.99;99029.94;432354;1270;108915;-42
2022/04/13 14:59:09;;;;;;;7.70;5.30;;;;;;;15.62;34.21;99027.19;432704;1270;99168;-43
2022/04/13 15:09:16;;;;;;;9.40;5.40;;;;;;;15.50;34.00;99022.98;432513;1270;112381;-45
2022/04/13 15:19:22;;;;;;;12.10;5.50;;;;;;;15.38;34.34;99017.16;432525;1270;108428;-43
2022/04/13 15:29:35;;;;;;;8.00;5.60;;;;;;;15.17;34.18;99023.70;432475;1270;99360;-43
2022/04/13 15:39:41;;;;;;;9.20;5.70;;;;;;;14.90;34.22;99022.86;432574;1270;108505;-46
2022/04/13 15:49:49;;;;;;;8.40;5.90;;;;;;;14.70;34.59;99027.88;432636;1270;99353;-45
2022/04/13 15:59:57;;;;;;;7.70;5.40;;;;;;;14.49;34.74;99030.98;432628;1270;111440;-45
2022/04/13 16:10:04;;;;;;;8.70;5.70;;;;;;;14.26;34.62;99035.73;432406;1270;109535;-41
2022/04/13 16:20:12;;;;;;;11.80;6.70;;;;;;;14.08;34.99;99037.23;432679;1270;99260;-42
2022/04/13 16:30:19;;;;;;;28.70;12.80;;;;;;;13.95;35.33;99037.13;432607;1271;108820;-41
2022/04/13 16:40:26;;;;;;;15.30;8.80;;;;;;;13.81;35.33;99038.61;432748;1271;99289;-42
2022/04/13 16:50:54;;;;;;;14.50;9.20;;;;;;;13.67;35.44;99044.82;432747;1271;112792;-45
2022/04/13 17:01:00;;;;;;;13.10;7.30;;;;;;;13.54;35.59;99035.64;432644;1271;108848;-41
2022/04/13 17:11:07;;;;;;;14.40;7.90;;;;;;;13.38;35.74;99039.84;432550;1271;98070;-41
2022/04/13 17:21:15;;;;;;;24.80;10.00;;;;;;;13.11;36.09;99036.61;432638;1270;108248;-45
2022/04/13 17:31:23;;;;;;;23.20;12.00;;;;;;;12.83;36.38;99039.90;432495;1270;99247;-44
2022/04/13 17:41:30;;;;;;;24.10;12.70;;;;;;;12.53;36.72;99040.77;432658;1270;112115;-44
2022/04/13 17:51:36;;;;;;;21.70;12.50;;;;;;;12.27;36.88;99040.75;432596;1268;108762;-43
2022/04/13 18:11:50;;;;;;;27.80;13.80;;;;;;;11.66;37.83;99057.28;432610;1270;108754;-42
2022/04/13 18:21:58;;;;;;;24.30;14.20;;;;;;;11.47;38.07;99059.38;432523;1270;99281;-43
2022/04/13 18:32:05;;;;;;;26.60;15.00;;;;;;;11.30;38.21;99062.90;432570;1271;112511;-45
2022/04/13 18:42:12;;;;;;;46.30;23.70;;;;;;;11.08;38.56;99076.53;432681;1271;108819;-42
2022/04/13 19:02:27;;;;;;;36.40;19.60;;;;;;;10.60;39.50;99088.86;432504;1271;108806;-41
2022/04/13 19:12:35;;;;;;;46.70;24.90;;;;;;;10.38;39.88;99084.38;432729;1271;99273;-42
2022/04/13 19:22:41;;;;;;;53.90;27.00;;;;;;;10.01;40.26;99087.73;432585;1270;112308;-45
2022/04/13 19:32:47;;;;;;;43.00;21.70;;;;;;;9.79;40.90;99087.89;432479;1270;108817;-42
2022/04/13 19:42:54;;;;;;;33.60;19.50;;;;;;;9.67;41.05;99085.92;432559;1270;99257;-42
2022/04/13 19:53:02;;;;;;;34.50;20.10;;;;;;;9.52;41.03;99084.39;432624;1269;112420;-45
2022/04/13 20:03:10;;;;;;;40.00;19.10;;;;;;;9.37;41.20;99088.94;432647;1270;109158;-46
2022/04/13 20:13:17;;;;;;;61.30;31.50;;;;;;;9.30;41.38;99081.46;432585;1270;98002;-42
2022/04/13 20:23:25;;;;;;;32.30;17.10;;;;;;;9.22;41.29;99079.30;432547;1269;112520;-42
2022/04/13 20:33:32;;;;;;;105.90;48.30;;;;;;;9.07;41.39;99080.61;432478;1271;107860;-41
2022/04/13 20:43:39;;;;;;;35.20;18.80;;;;;;;8.83;41.67;99077.25;432601;1271;99260;-45
2022/04/13 20:53:46;;;;;;;37.10;20.70;;;;;;;8.65;41.81;99070.96;432814;1271;112825;-43
2022/04/13 21:03:54;;;;;;;43.90;22.10;;;;;;;8.52;41.93;99072.08;432702;1271;108805;-44
2022/04/13 21:14:01;;;;;;;38.80;18.00;;;;;;;8.53;41.90;99069.33;429876;1270;3697064;-43
2022/04/13 21:24:08;;;;;;;42.90;17.80;;;;;;;8.58;41.72;99063.65;432533;1271;112327;-41
2022/04/13 21:34:15;;;;;;;39.40;18.50;;;;;;;8.56;41.65;99059.42;432567;1271;107510;-46
2022/04/13 21:44:22;;;;;;;34.40;16.00;;;;;;;8.45;41.92;99055.46;432589;1271;99341;-44
2022/04/13 21:54:30;;;;;;;35.40;16.00;;;;;;;8.30;41.89;99054.41;432712;1271;112577;-44
2022/04/13 22:04:37;;;;;;;27.40;13.00;;;;;;;8.19;41.86;99046.43;432768;1271;108914;-43
2022/04/13 22:14:45;;;;;;;30.30;15.80;;;;;;;8.10;41.86;99045.96;432621;1271;99185;-45
2022/04/13 22:24:52;;;;;;;44.80;23.90;;;;;;;7.94;41.78;99049.95;432757;1270;112877;-46
2022/04/13 22:35:00;;;;;;;54.10;21.50;;;;;;;7.70;42.06;99045.05;432499;1270;109051;-43
2022/04/13 22:45:06;;;;;;;37.60;18.20;;;;;;;7.52;42.27;99048.04;432528;1270;99285;-42
2022/04/13 23:05:19;;;;;;;35.20;15.70;;;;;;;7.47;42.30;99040.59;432616;1270;108859;-42
2022/04/13 23:15:27;;;;;;;30.30;15.10;;;;;;;7.55;42.29;99027.00;432612;1270;98555;-44
2022/04/13 23:25:34;;;;;;;34.30;17.80;;;;;;;7.61;42.20;99024.75;432709;1270;112594;-46
2022/04/13 23:35:42;;;;;;;22.70;11.40;;;;;;;7.64;42.24;99019.98;432672;1271;108720;-43
2022/04/13 23:45:48;;;;;;;39.30;16.30;;;;;;;7.70;42.11;99014.42;432508;1271;99392;-45
2022/04/13 23:55:55;;;;;;;20.70;9.50;;;;;;;7.77;42.02;99011.42;432625;1271;111336;-42
